CYRJ

Roberval Airport

Roberval, Quebec, Canada
METAR CYRJ 100200Z 27007KT 5SM -SN OVC032 M13/M15 A2998 RMK SC8 LAST OBS/NEXT 101000UTC SLP171
Observed Flight Rules
Dec-10 @ 02:00 UTC (4 hours ago) Marginal Visual Flight Rules
Wind Visibility Clouds Conditions
270° at 7 knots 5 miles
  • Overcast at 3,200' AGL
  • Light Snow
Temperatures Readings
Current -13°C / 9°F
Dewpoint -15°C / 5°F
Humidity 85%
Altimeter 29.98" Hg
Pressure 1017.1 hPa
Elevation 179
METAR CYRJ 100200Z 27007KT 5SM -SN OVC032 M13/M15 A2998 RMK SC8 LAST OBS/NEXT 101000UTC SLP171
Observed Flight Rules
Dec-10 @ 02:00 UTC
(4 hours ago)
MVFR
Wind Visibility
270° at 7 knots 5 miles
Clouds
  • Overcast at 3,200' AGL
Conditions
  • Light Snow
Temperature Dewpoint
-13°C / 9°F -15°C / 5°F
Humidity Altimeter Pressure
85% 29.98" Hg 1017.1 hPa